Adairo, OH

9:34 AM EDT on September 17, 2014 (GMT -0400)
Mansfield Lahm Regional | Change Station
CLOSE
Current Station
Airport
Location: Mansfield,
Elevation: 1296 ft
Nearby Weather Stations

Elev 1296 ft 40.82 °N, 82.52 °W | Updated 42 minutes ago

Overcast
Overcast
54 °F
Feels Like 54 °F
N
0
Wind Variable Wind from North

Today
High -- | Low -- °F
--% Chance of Precip.
Yesterday
High -- | Low -- °F
Precip. -- in
7:12 AM 7:35 PM
Waning Crescent, 36% visible
Pressure 30.08 in
Visibility 10.0 miles
Clouds Overcast 4500 ft
Dew Point 50 °F
Humidity 86%
Rainfall 0.00 in
Snow Depth Not available.
UV 0 out of 12
Pollen 4.10 out of 12
Air Quality Not available.
Flu Activity Not available.
METAR KMFD 171252Z 00000KT 10SM OVC045 12/10 A3008 RMK AO2 SLP186 T01220100

More Conditions Fewer Conditions

Pressure 30.08 in
Visibility 10.0 miles
Clouds Overcast 4500 ft
Dew Point 50 °F
Humidity 86%
Rainfall 0.00 in
Snow Depth Not available.
UV 0 out of 12
Pollen 4.10 out of 12
Air Quality Not available.
Flu Activity Not available.
METAR KMFD 171252Z 00000KT 10SM OVC045 12/10 A3008 RMK AO2 SLP186 T01220100

More Conditions Fewer Conditions

10-Day Weather Forecast

Almanac

Astronomy

Sep. 17, 2014 Rise Set
Actual Time 7:12 AM EDT 7:35 PM EDT
Civil Twilight 6:45 AM EDT 8:03 PM EDT
Nautical Twilight 6:12 AM EDT 8:35 PM EDT
Astronomical Twilight 5:39 AM EDT 9:08 PM EDT
Moon 1:09 AM EDT 3:46 PM EDT
Length of Visible Light 13h 18m
Length of Day
12h 23m
Tomorrow will be 2m 41s shorter.
Waning Crescent, 36% of the Moon is Illuminated
Today
Waning Crescent
Sep 24
New
Oct 1
First Quarter
Oct 8
Full
Oct 15
Last Quarter

Today's Extremes

State Highs State Lows

Community

WunderPhotos

Upload Photos

1,754,029 photos uploaded!

Nearby

Air Quality

  Air Quality AQ Index Pollutant
Yesterday Good
PM2.5
Wednesday Good
PM2.5
Wednesday Good
OZONE
Thursday Good
OZONE
Thursday Good
PM2.5
Friday Good
OZONE
Friday Good
PM2.5
Saturday Moderate
OZONE
Saturday Moderate
PM2.5
Sunday Good
OZONE
Sunday Good
PM2.5

Snow Depth

Station Depth Elevation
No new snow has been reported.

Earthquake Activity

City Distance Mag. Time & Date
No recent earthquake activity has been reported nearby.
Minimum magnitude displayed is 2.5.

Coastal Water Temperatures

Place Temperature
No Stations Reporting

Nearby Weather Stations